createdAt,value
2023-01-12T00:03:06.555Z,4.20
2023-01-12T00:08:08.264Z,4.30
2023-01-12T00:13:16.994Z,2.60
2023-01-12T00:18:20.042Z,2.60
2023-01-12T00:23:22.059Z,4.00
2023-01-12T00:28:23.646Z,4.40
2023-01-12T00:33:25.280Z,4.40
2023-01-12T00:38:27.203Z,5.00
2023-01-12T00:43:47.398Z,2.60
2023-01-12T00:48:49.199Z,4.30
2023-01-12T00:53:50.835Z,6.70
2023-01-12T00:58:52.468Z,3.20
2023-01-12T01:03:54.666Z,4.70
2023-01-12T01:08:56.463Z,12.20
2023-01-12T01:13:59.150Z,7.30
2023-01-12T01:19:03.105Z,7.60
2023-01-12T01:24:09.127Z,4.70
2023-01-12T01:29:11.305Z,3.60
2023-01-12T01:34:13.437Z,5.20
2023-01-12T01:39:15.148Z,6.60
2023-01-12T01:44:31.923Z,4.20
2023-01-12T01:49:52.640Z,5.50
2023-01-12T01:54:59.281Z,4.90
2023-01-12T02:00:03.249Z,5.50
2023-01-12T02:05:07.554Z,3.60
2023-01-12T02:10:10.106Z,4.90
2023-01-12T02:15:30.695Z,5.60
2023-01-12T02:20:55.828Z,6.80
2023-01-12T02:26:27.037Z,5.30
2023-01-12T02:31:50.069Z,4.10
2023-01-12T02:37:10.538Z,5.90
2023-01-12T02:42:41.973Z,4.80
2023-01-12T02:47:49.013Z,4.30
2023-01-12T02:52:56.570Z,4.70
2023-01-12T02:58:00.076Z,5.70
2023-01-12T03:03:02.027Z,5.20
2023-01-12T03:08:05.366Z,7.30
2023-01-12T03:13:15.806Z,6.40
2023-01-12T03:18:39.378Z,6.80
2023-01-12T03:23:49.395Z,5.80
2023-01-12T03:28:56.433Z,5.70
2023-01-12T03:33:58.656Z,5.20
2023-01-12T03:39:11.813Z,8.50
2023-01-12T03:44:24.092Z,11.00
2023-01-12T03:49:33.117Z,9.70
2023-01-12T03:59:40.948Z,6.40
2023-01-12T04:04:42.626Z,7.70
2023-01-12T04:09:44.364Z,8.70
2023-01-12T04:14:48.155Z,8.90
2023-01-12T04:19:50.026Z,6.60
2023-01-12T04:24:51.845Z,9.50
2023-01-12T04:29:53.752Z,9.40
2023-01-12T04:34:55.429Z,10.60
2023-01-12T04:39:57.074Z,9.70
2023-01-12T04:44:58.859Z,8.70
2023-01-12T04:50:00.605Z,5.30
2023-01-12T04:55:03.132Z,11.00
2023-01-12T05:00:06.107Z,9.40
2023-01-12T05:10:23.628Z,6.50
2023-01-12T05:15:25.427Z,9.20
2023-01-12T05:20:27.094Z,14.50
2023-01-12T05:25:29.485Z,7.60
2023-01-12T05:30:32.059Z,5.30
2023-01-12T05:35:33.951Z,15.20
2023-01-12T05:40:35.818Z,8.90
2023-01-12T05:45:37.558Z,15.60
2023-01-12T05:50:39.962Z,16.10
2023-01-12T05:55:44.356Z,11.80
2023-01-12T06:00:46.705Z,14.50
2023-01-12T06:05:55.828Z,11.50
2023-01-12T06:16:09.139Z,17.10
2023-01-12T06:21:11.008Z,14.00
2023-01-12T06:26:12.989Z,17.80
2023-01-12T06:31:15.674Z,12.20
2023-01-12T06:36:17.456Z,9.80
2023-01-12T06:41:37.979Z,14.90
2023-01-12T06:46:39.874Z,16.00
2023-01-12T06:51:41.703Z,11.30
2023-01-12T06:56:43.339Z,17.00
2023-01-12T07:01:45.064Z,10.60
2023-01-12T07:06:48.287Z,12.60
2023-01-12T07:16:51.761Z,13.20
2023-01-12T07:21:53.430Z,11.60
2023-01-12T07:26:58.089Z,9.10
2023-01-12T07:31:59.780Z,10.70
2023-01-12T07:37:01.423Z,11.10
2023-01-12T07:42:21.897Z,9.50
2023-01-12T07:47:23.618Z,10.90
2023-01-12T07:52:25.448Z,12.90
2023-01-12T07:57:27.133Z,14.00
2023-01-12T08:02:28.956Z,10.50
2023-01-12T08:07:32.598Z,8.80
2023-01-12T08:12:35.849Z,13.60
2023-01-12T08:17:44.936Z,9.00
2023-01-12T08:22:51.654Z,10.00
2023-01-12T08:28:00.240Z,11.30
2023-01-12T08:33:02.749Z,8.90
2023-01-12T08:38:04.503Z,8.50
2023-01-12T08:43:06.225Z,11.40
2023-01-12T08:48:07.889Z,10.50
2023-01-12T08:53:10.540Z,9.30
2023-01-12T08:58:12.421Z,7.70
2023-01-12T09:03:14.491Z,9.60
2023-01-12T09:08:16.508Z,5.90
2023-01-12T09:13:18.148Z,6.70
2023-01-12T09:18:20.421Z,8.70
2023-01-12T09:23:22.267Z,6.70
2023-01-12T09:28:24.071Z,6.40
2023-01-12T09:33:26.020Z,4.60
2023-01-12T09:38:27.906Z,5.10
2023-01-12T09:43:48.176Z,5.10
2023-01-12T09:48:49.978Z,7.60
2023-01-12T09:53:51.809Z,6.20
2023-01-12T09:58:59.534Z,8.10
2023-01-12T10:04:02.283Z,6.40
2023-01-12T10:14:28.198Z,6.20
2023-01-12T10:20:03.013Z,4.50
2023-01-12T10:25:27.058Z,4.90
2023-01-12T10:30:28.856Z,5.30
2023-01-12T10:35:30.561Z,4.70
2023-01-12T10:40:34.957Z,6.30
2023-01-12T10:45:36.847Z,4.50
2023-01-12T10:50:38.667Z,4.60
2023-01-12T10:55:43.067Z,4.50
2023-01-12T11:00:52.229Z,3.20
2023-01-12T11:05:53.971Z,4.40
2023-01-12T11:10:55.683Z,3.80
2023-01-12T11:16:09.526Z,4.20
2023-01-12T11:21:15.825Z,3.50
2023-01-12T11:26:22.672Z,4.00
2023-01-12T11:31:42.386Z,3.20
2023-01-12T11:36:50.964Z,3.00
2023-01-12T11:42:17.632Z,3.90
2023-01-12T11:47:31.515Z,3.00
2023-01-12T11:52:34.535Z,3.50
2023-01-12T11:58:00.640Z,2.10
2023-01-12T12:03:12.238Z,3.40
2023-01-12T12:08:42.013Z,2.90
2023-01-12T12:14:31.198Z,2.30
2023-01-12T12:19:50.198Z,1.90
2023-01-12T12:25:50.666Z,2.30
2023-01-12T12:31:24.081Z,3.60
2023-01-12T12:36:34.869Z,4.10
2023-01-12T12:42:11.820Z,3.50
2023-01-12T12:47:41.024Z,2.40
2023-01-12T12:52:47.847Z,2.70
2023-01-12T12:58:01.391Z,2.30
2023-01-12T13:03:03.129Z,2.40
2023-01-12T13:08:05.261Z,1.80
2023-01-12T13:13:24.896Z,2.80
2023-01-12T13:18:42.151Z,2.30
2023-01-12T13:23:51.374Z,3.50
2023-01-12T13:29:29.055Z,1.80
2023-01-12T13:34:36.655Z,2.10
2023-01-12T13:39:45.953Z,2.00
2023-01-12T13:44:48.833Z,2.00
2023-01-12T13:54:55.557Z,3.20
2023-01-12T14:00:09.300Z,1.90
2023-01-12T14:05:29.531Z,1.90
2023-01-12T14:10:49.621Z,3.10
2023-01-12T14:16:19.555Z,3.30
2023-01-12T14:21:33.343Z,2.40
2023-01-12T14:26:35.456Z,2.80
2023-01-12T14:31:40.230Z,2.60
2023-01-12T14:36:44.318Z,3.50
2023-01-12T14:42:11.274Z,2.90
2023-01-12T14:47:24.900Z,2.90
2023-01-12T14:52:33.264Z,4.20
2023-01-12T14:57:36.435Z,3.00
2023-01-12T15:02:41.488Z,3.30
2023-01-12T15:07:55.755Z,3.80
2023-01-12T15:13:12.924Z,3.60
2023-01-12T15:18:34.016Z,2.90
2023-01-12T15:23:55.604Z,3.60
2023-01-12T15:28:57.338Z,2.70
2023-01-12T15:34:00.278Z,2.70
2023-01-12T15:39:01.964Z,3.20
2023-01-12T15:44:03.707Z,4.10
2023-01-12T15:49:05.868Z,3.40
2023-01-12T15:54:11.484Z,3.20
2023-01-12T15:59:13.479Z,3.00
2023-01-12T16:04:41.975Z,4.60
2023-01-12T16:09:47.779Z,2.90
2023-01-12T16:14:50.015Z,3.30
2023-01-12T16:19:51.772Z,3.90
2023-01-12T16:24:55.630Z,3.10
2023-01-12T16:29:57.646Z,3.90
2023-01-12T16:34:59.325Z,4.90
2023-01-12T16:40:01.197Z,5.40
2023-01-12T16:45:03.584Z,3.40
2023-01-12T16:50:06.004Z,5.70
2023-01-12T16:55:07.857Z,3.10
2023-01-12T17:00:10.688Z,4.80
2023-01-12T17:05:12.474Z,3.60
2023-01-12T17:10:17.594Z,3.40
2023-01-12T17:15:19.334Z,3.80
2023-01-12T17:20:21.461Z,4.20
2023-01-12T17:25:23.547Z,4.20
2023-01-12T17:30:25.805Z,3.20
2023-01-12T17:35:27.610Z,4.30
2023-01-12T17:40:29.414Z,3.90
2023-01-12T17:45:31.327Z,4.90
2023-01-12T17:50:33.151Z,6.70
2023-01-12T17:55:47.358Z,5.60
2023-01-12T18:00:49.801Z,5.10
2023-01-12T18:06:02.837Z,4.50
2023-01-12T18:11:08.595Z,3.90
2023-01-12T18:16:12.581Z,5.10
2023-01-12T18:21:18.558Z,5.10
2023-01-12T18:26:25.781Z,5.10
2023-01-12T18:31:31.890Z,3.20
2023-01-12T18:36:36.778Z,5.00
2023-01-12T18:41:57.155Z,5.60
2023-01-12T18:47:19.104Z,3.90
2023-01-12T18:52:40.055Z,5.10
2023-01-12T18:57:41.705Z,2.60
2023-01-12T19:02:44.651Z,4.00
2023-01-12T19:13:18.855Z,3.80
2023-01-12T19:18:20.647Z,2.00
2023-01-12T19:23:41.673Z,2.80
2023-01-12T19:28:43.392Z,2.20
2023-01-12T19:33:45.140Z,3.20
2023-01-12T19:38:50.971Z,3.50
2023-01-12T19:43:52.736Z,3.10
2023-01-12T19:48:54.430Z,2.10
2023-01-12T19:53:56.151Z,2.60
2023-01-12T19:58:58.046Z,2.70
2023-01-12T20:03:59.970Z,2.80
2023-01-12T20:09:03.149Z,2.90
2023-01-12T20:14:05.138Z,2.20
2023-01-12T20:19:07.217Z,3.50
2023-01-12T20:24:09.425Z,2.90
2023-01-12T20:29:11.685Z,2.40
2023-01-12T20:34:13.609Z,2.10
2023-01-12T20:39:16.146Z,2.10
2023-01-12T20:44:20.352Z,2.10
2023-01-12T20:49:22.209Z,2.00
2023-01-12T20:54:23.977Z,2.80
2023-01-12T20:59:25.792Z,2.20
2023-01-12T21:04:27.547Z,1.90
2023-01-12T21:09:29.621Z,2.70
2023-01-12T21:14:32.202Z,2.20
2023-01-12T21:19:34.409Z,2.10
2023-01-12T21:24:36.160Z,2.10
2023-01-12T21:29:37.923Z,2.20
2023-01-12T21:34:39.706Z,2.90
2023-01-12T21:39:41.489Z,2.50
2023-01-12T21:44:43.169Z,1.80
2023-01-12T21:49:44.934Z,2.50
2023-01-12T21:54:46.793Z,2.90
2023-01-12T21:59:48.471Z,2.40
2023-01-12T22:04:50.132Z,2.40
2023-01-12T22:09:52.019Z,2.60
2023-01-12T22:14:57.022Z,2.60
2023-01-12T22:19:59.117Z,2.10
2023-01-12T22:25:00.947Z,2.80
2023-01-12T22:30:05.204Z,2.90
2023-01-12T22:35:07.719Z,2.80
2023-01-12T22:40:11.055Z,2.20
2023-01-12T22:45:14.010Z,2.10
2023-01-12T22:50:15.951Z,1.30
2023-01-12T22:55:17.755Z,1.80
2023-01-12T23:00:21.095Z,1.90
2023-01-12T23:05:22.930Z,2.10
2023-01-12T23:10:25.517Z,1.80
2023-01-12T23:15:27.244Z,2.70
2023-01-12T23:20:29.140Z,2.00
2023-01-12T23:25:32.890Z,2.00
2023-01-12T23:30:34.721Z,2.00
2023-01-12T23:35:40.439Z,1.90
2023-01-12T23:40:42.395Z,1.40
2023-01-12T23:45:44.346Z,1.70
2023-01-12T23:50:46.148Z,1.50
2023-01-12T23:55:47.964Z,1.40
